National Weather Service Raw Text Product

Displaying AFOS PIL: TAFMCW Received: 2018-01-12 23:33 UTC


299 
FTUS43 KDMX 122333
TAFMCW
TAF
KMCW 122333Z 1300/1324 34009KT P6SM FEW090 SCT250
     FM132300 32009KT P6SM FEW250=